Time;durP1;ratioP1;P1;durP2;ratioP2;P2;SDS_P1;SDS_P2;PMS_P1;PMS_P2;Temp;Humidity;BMP_temperature;BMP_pressure;BME280_temperature;BME280_humidity;BME280_pressure;Samples;Min_cycle;Max_cycle;Signal;HPM_P1;HPM_P2
2023/10/08 00:01:35;;;;;;;8.02;3.25;;;;;;;;;;5032644;28;20499;-69
2023/10/08 00:04:04;;;;;;;17.95;4.20;;;;;;;;;;5033121;28;20021;-69
2023/10/08 00:06:30;;;;;;;15.20;3.83;;;;;;;;;;5036561;28;20022;-71
2023/10/08 00:08:59;;;;;;;12.00;3.83;;;;;;;;;;5041499;28;20028;-70
2023/10/08 00:11:25;;;;;;;16.08;4.60;;;;;;;;;;5036792;28;20618;-68
2023/10/08 00:13:50;;;;;;;15.45;5.47;;;;;;;;;;5044390;28;20079;-69
2023/10/08 00:16:16;;;;;;;12.32;4.20;;;;;;;;;;5044259;28;20116;-69
2023/10/08 00:18:48;;;;;;;16.02;4.13;;;;;;;;;;5042332;28;20176;-70
2023/10/08 00:23:42;;;;;;;9.68;3.85;;;;;;;;;;5030895;28;20089;-69
2023/10/08 00:26:10;;;;;;;15.43;4.30;;;;;;;;;;5032605;28;20032;-70
2023/10/08 00:28:35;;;;;;;12.43;3.95;;;;;;;;;;5031763;28;20018;-69
2023/10/08 00:31:11;;;;;;;13.65;4.38;;;;;;;;;;5037652;28;20029;-70
2023/10/08 00:33:36;;;;;;;10.40;4.30;;;;;;;;;;5029080;28;20034;-67
2023/10/08 00:36:17;;;;;;;12.68;4.85;;;;;;;;;;5035314;28;20044;-69
2023/10/08 00:38:44;;;;;;;14.15;4.55;;;;;;;;;;5034878;28;20507;-69
2023/10/08 00:41:12;;;;;;;20.20;4.55;;;;;;;;;;5038839;28;20037;-69
2023/10/08 00:43:37;;;;;;;11.38;4.72;;;;;;;;;;5036858;28;20029;-66
2023/10/08 00:46:04;;;;;;;17.17;5.45;;;;;;;;;;5032215;28;20152;-69
2023/10/08 00:48:35;;;;;;;13.57;4.57;;;;;;;;;;5030306;28;20022;-67
2023/10/08 00:51:25;;;;;;;13.55;4.20;;;;;;;;;;5037120;28;20029;-66
2023/10/08 00:54:08;;;;;;;13.73;4.90;;;;;;;;;;5034724;28;20496;-68
2023/10/08 00:56:53;;;;;;;11.10;4.72;;;;;;;;;;5028166;28;20061;-66
2023/10/08 00:59:21;;;;;;;10.23;4.00;;;;;;;;;;5028252;28;20025;-69
2023/10/08 01:01:51;;;;;;;14.13;4.13;;;;;;;;;;5029328;28;20109;-66
2023/10/08 01:04:17;;;;;;;17.20;4.32;;;;;;;;;;5031500;28;20029;-68
2023/10/08 01:06:42;;;;;;;18.00;4.85;;;;;;;;;;5036235;28;20495;-67
2023/10/08 01:09:59;;;;;;;15.05;4.65;;;;;;;;;;5030901;28;20629;-67
2023/10/08 01:15:04;;;;;;;18.55;4.88;;;;;;;;;;4986589;28;20107;-68
2023/10/08 01:17:32;;;;;;;13.77;4.32;;;;;;;;;;5037470;28;20097;-68
2023/10/08 01:20:08;;;;;;;14.23;5.25;;;;;;;;;;5039508;23;20029;-64
2023/10/08 01:22:34;;;;;;;14.50;5.80;;;;;;;;;;5030137;28;20024;-66
2023/10/08 01:25:01;;;;;;;27.05;5.05;;;;;;;;;;5030068;28;20030;-67
2023/10/08 01:27:29;;;;;;;15.35;5.30;;;;;;;;;;5038548;28;20021;-64
2023/10/08 01:29:54;;;;;;;17.83;5.55;;;;;;;;;;5030183;28;20104;-66
2023/10/08 01:32:21;;;;;;;12.95;4.70;;;;;;;;;;5025148;28;20109;-64
2023/10/08 01:34:47;;;;;;;17.02;4.70;;;;;;;;;;5028706;28;20022;-62
2023/10/08 01:37:13;;;;;;;13.43;4.57;;;;;;;;;;5032724;28;20013;-66
2023/10/08 01:39:42;;;;;;;8.30;3.47;;;;;;;;;;5034972;28;20425;-65
2023/10/08 01:42:15;;;;;;;9.10;3.88;;;;;;;;;;5019433;28;20022;-63
2023/10/08 01:44:40;;;;;;;7.63;3.17;;;;;;;;;;5021550;28;20040;-66
2023/10/08 01:47:06;;;;;;;5.03;2.38;;;;;;;;;;5027864;28;20026;-67
2023/10/08 01:49:33;;;;;;;6.25;2.08;;;;;;;;;;5029282;28;20037;-65
2023/10/08 01:51:58;;;;;;;3.03;1.42;;;;;;;;;;5029057;28;20024;-63
2023/10/08 01:54:26;;;;;;;3.03;1.13;;;;;;;;;;5027329;28;20022;-66
2023/10/08 01:56:51;;;;;;;1.52;0.80;;;;;;;;;;5029486;28;20029;-65
2023/10/08 01:59:16;;;;;;;0.60;0.60;;;;;;;;;;5039253;28;20022;-66
2023/10/08 02:01:42;;;;;;;1.35;0.52;;;;;;;;;;5021985;28;20017;-65
2023/10/08 02:04:09;;;;;;;2.22;0.60;;;;;;;;;;5028238;28;20138;-63
2023/10/08 02:06:34;;;;;;;0.63;0.40;;;;;;;;;;5029077;28;20112;-66
2023/10/08 02:09:07;;;;;;;0.43;0.40;;;;;;;;;;5029067;28;20096;-65
2023/10/08 02:11:41;;;;;;;0.30;0.30;;;;;;;;;;5024121;28;20025;-66
2023/10/08 02:14:06;;;;;;;0.65;0.35;;;;;;;;;;5029428;28;20033;-66
2023/10/08 02:16:33;;;;;;;0.45;0.40;;;;;;;;;;5028040;28;20555;-63
2023/10/08 02:18:58;;;;;;;0.77;0.30;;;;;;;;;;5028550;28;20025;-67
2023/10/08 02:21:25;;;;;;;0.65;0.40;;;;;;;;;;5028154;28;20030;-67
2023/10/08 02:23:50;;;;;;;0.30;0.30;;;;;;;;;;5030462;28;20022;-64
2023/10/08 02:26:15;;;;;;;0.95;0.50;;;;;;;;;;5019444;28;20044;-65
2023/10/08 02:28:41;;;;;;;0.35;0.35;;;;;;;;;;5022344;28;20022;-66
2023/10/08 02:31:08;;;;;;;0.47;0.47;;;;;;;;;;5027954;28;20086;-66
2023/10/08 02:33:34;;;;;;;0.60;0.50;;;;;;;;;;5024243;28;20052;-65
2023/10/08 02:36:01;;;;;;;2.13;1.10;;;;;;;;;;5025336;28;20029;-63
2023/10/08 02:38:28;;;;;;;1.63;0.80;;;;;;;;;;5036032;28;20036;-66
2023/10/08 02:40:56;;;;;;;0.82;0.80;;;;;;;;;;5025705;28;20026;-65
2023/10/08 02:43:21;;;;;;;1.55;0.90;;;;;;;;;;5027588;28;20033;-64
2023/10/08 02:45:47;;;;;;;0.80;0.70;;;;;;;;;;5024293;28;20025;-66
2023/10/08 02:48:12;;;;;;;1.15;0.65;;;;;;;;;;5020526;28;20022;-64
2023/10/08 02:50:41;;;;;;;1.73;0.43;;;;;;;;;;5023802;28;20021;-65
2023/10/08 02:53:17;;;;;;;0.40;0.40;;;;;;;;;;5020496;28;20100;-65
2023/10/08 02:55:46;;;;;;;0.30;0.30;;;;;;;;;;5034293;28;20033;-65
2023/10/08 02:58:14;;;;;;;0.22;0.22;;;;;;;;;;5023150;28;20098;-64
2023/10/08 03:00:40;;;;;;;0.30;0.30;;;;;;;;;;5028403;28;20040;-64
2023/10/08 03:03:09;;;;;;;0.20;0.20;;;;;;;;;;5007939;28;20990;-64
2023/10/08 03:05:35;;;;;;;;;;;;;;;;;;5022107;28;20025;-61
2023/10/08 03:08:01;;;;;;;3.20;0.30;;;;;;;;;;5024843;28;20002;-66
2023/10/08 03:10:33;;;;;;;0.30;0.30;;;;;;;;;;5027225;28;20052;-65
2023/10/08 03:13:04;;;;;;;0.20;0.20;;;;;;;;;;5028428;28;20488;-64
2023/10/08 03:15:30;;;;;;;0.28;0.28;;;;;;;;;;5027381;28;20025;-65
2023/10/08 03:17:57;;;;;;;0.20;0.20;;;;;;;;;;5028102;28;20099;-63
2023/10/08 03:20:48;;;;;;;;;;;;;;;;;;;;;
2023/10/08 03:23:06;;;;;;;0.30;0.30;;;;;;;;;;5027887;28;20025;-66
2023/10/08 03:25:41;;;;;;;0.20;0.20;;;;;;;;;;5025297;28;20028;-65
2023/10/08 03:28:08;;;;;;;0.28;0.28;;;;;;;;;;5023519;28;20033;-65
2023/10/08 03:30:40;;;;;;;0.20;0.20;;;;;;;;;;5031813;28;20100;-67
2023/10/08 03:33:10;;;;;;;0.90;0.35;;;;;;;;;;5034948;28;20029;-67
2023/10/08 03:35:37;;;;;;;0.30;0.30;;;;;;;;;;5029762;28;20087;-65
2023/10/08 03:38:18;;;;;;;0.40;0.40;;;;;;;;;;5040578;28;20209;-65
2023/10/08 03:40:48;;;;;;;0.50;0.50;;;;;;;;;;5014956;28;20026;-63
2023/10/08 03:43:23;;;;;;;0.52;0.52;;;;;;;;;;5033654;28;20017;-66
2023/10/08 03:45:51;;;;;;;0.70;0.47;;;;;;;;;;5034873;28;20018;-66
2023/10/08 03:48:16;;;;;;;0.50;0.50;;;;;;;;;;5030442;28;20022;-65
2023/10/08 03:50:43;;;;;;;0.57;0.57;;;;;;;;;;5032240;28;20105;-66
2023/10/08 03:53:14;;;;;;;0.50;0.50;;;;;;;;;;5031282;28;20096;-65
2023/10/08 03:55:41;;;;;;;0.40;0.40;;;;;;;;;;5038161;28;20025;-66
2023/10/08 03:58:16;;;;;;;0.32;0.32;;;;;;;;;;5032453;28;20362;-66
2023/10/08 04:00:45;;;;;;;0.93;0.60;;;;;;;;;;5032090;28;20029;-66
2023/10/08 04:03:11;;;;;;;;;;;;;;;;;;5031470;28;20036;-65
2023/10/08 04:05:44;;;;;;;0.50;0.50;;;;;;;;;;5018012;28;20011;-66
2023/10/08 04:08:39;;;;;;;0.50;0.47;;;;;;;;;;5044755;28;20024;-66
2023/10/08 04:11:08;;;;;;;0.30;0.30;;;;;;;;;;5030773;28;20010;-67
2023/10/08 04:13:34;;;;;;;0.30;0.30;;;;;;;;;;5031886;28;20017;-66
2023/10/08 04:15:59;;;;;;;0.20;0.20;;;;;;;;;;5032434;28;20397;-66
2023/10/08 04:18:24;;;;;;;1.80;0.43;;;;;;;;;;5032313;28;20654;-65
2023/10/08 04:21:00;;;;;;;0.20;0.20;;;;;;;;;;5021214;28;20022;-64
2023/10/08 04:23:25;;;;;;;0.20;0.20;;;;;;;;;;5027307;28;20068;-66
2023/10/08 04:25:54;;;;;;;0.73;0.40;;;;;;;;;;5022484;28;20022;-66
2023/10/08 04:28:20;;;;;;;0.70;0.43;;;;;;;;;;5026777;28;20374;-66
2023/10/08 04:30:47;;;;;;;1.33;0.68;;;;;;;;;;5027503;28;20017;-65
2023/10/08 04:33:13;;;;;;;0.43;0.43;;;;;;;;;;5026605;28;20477;-65
2023/10/08 04:35:48;;;;;;;1.00;0.50;;;;;;;;;;5023598;28;20025;-66
2023/10/08 04:38:19;;;;;;;0.57;0.40;;;;;;;;;;4999604;28;20104;-65
2023/10/08 04:40:51;;;;;;;0.45;0.45;;;;;;;;;;5027610;28;20726;-65
2023/10/08 04:43:24;;;;;;;0.82;0.50;;;;;;;;;;5023504;28;20021;-63
2023/10/08 04:45:50;;;;;;;0.77;0.60;;;;;;;;;;5011716;28;20021;-66
2023/10/08 04:48:20;;;;;;;1.75;0.98;;;;;;;;;;5027919;28;20018;-65
2023/10/08 04:50:45;;;;;;;2.08;0.80;;;;;;;;;;5024100;28;20021;-66
2023/10/08 04:53:11;;;;;;;3.83;1.30;;;;;;;;;;5026944;28;20469;-67
2023/10/08 04:55:41;;;;;;;4.35;1.80;;;;;;;;;;5029837;28;20022;-65
2023/10/08 04:58:19;;;;;;;3.83;1.92;;;;;;;;;;5018365;28;20473;-63
2023/10/08 05:00:53;;;;;;;6.28;2.28;;;;;;;;;;5029231;28;20424;-67
2023/10/08 05:03:20;;;;;;;3.47;1.80;;;;;;;;;;5030946;28;20020;-63
2023/10/08 05:08:47;;;;;;;3.75;1.88;;;;;;;;;;5031015;28;20377;-66
2023/10/08 05:11:24;;;;;;;6.60;2.40;;;;;;;;;;5030662;28;20017;-66
2023/10/08 05:14:05;;;;;;;4.90;2.10;;;;;;;;;;5030196;28;20009;-66
2023/10/08 05:16:43;;;;;;;15.60;1.92;;;;;;;;;;5029530;28;20018;-65
2023/10/08 05:19:37;;;;;;;5.55;1.88;;;;;;;;;;5029974;28;20056;-62
2023/10/08 05:22:17;;;;;;;5.63;1.80;;;;;;;;;;5007378;28;20030;-66
2023/10/08 05:24:51;;;;;;;3.05;1.38;;;;;;;;;;5026451;28;20057;-66
2023/10/08 05:30:15;;;;;;;6.57;1.70;;;;;;;;;;5024459;28;20020;-63
2023/10/08 05:33:06;;;;;;;6.35;1.27;;;;;;;;;;5030169;28;20013;-64
2023/10/08 05:49:00;;;;;;;6.10;1.60;;;;;;;;;;5028018;28;20049;-64
2023/10/08 05:51:44;;;;;;;6.25;1.55;;;;;;;;;;5030260;28;20080;-62
2023/10/08 05:54:24;;;;;;;5.60;1.40;;;;;;;;;;5027238;28;20021;-65
2023/10/08 05:57:07;;;;;;;4.35;1.33;;;;;;;;;;5026843;28;20036;-66
2023/10/08 05:59:52;;;;;;;4.13;1.08;;;;;;;;;;5028078;28;20018;-65
2023/10/08 06:07:48;;;;;;;7.53;1.38;;;;;;;;;;5031462;28;20489;-64
2023/10/08 06:13:06;;;;;;;5.25;1.48;;;;;;;;;;5029084;28;20464;-66
2023/10/08 06:18:27;;;;;;;5.00;1.52;;;;;;;;;;5029244;28;20033;-65
2023/10/08 06:20:58;;;;;;;5.30;1.35;;;;;;;;;;5012928;28;20029;-63
2023/10/08 06:23:24;;;;;;;5.70;1.38;;;;;;;;;;5011442;28;20025;-67
2023/10/08 06:26:13;;;;;;;6.78;1.60;;;;;;;;;;5010189;28;20024;-67
2023/10/08 06:28:39;;;;;;;5.90;1.50;;;;;;;;;;5030105;28;20061;-64
2023/10/08 06:31:11;;;;;;;9.75;1.50;;;;;;;;;;5030127;28;20432;-66
2023/10/08 06:33:40;;;;;;;6.43;1.88;;;;;;;;;;5026159;28;20381;-65
2023/10/08 06:36:13;;;;;;;9.00;2.17;;;;;;;;;;5027938;28;20056;-67
2023/10/08 06:38:50;;;;;;;7.13;1.50;;;;;;;;;;5007424;28;20130;-67
2023/10/08 06:41:17;;;;;;;8.40;2.00;;;;;;;;;;5025235;28;20021;-64
2023/10/08 06:43:49;;;;;;;5.90;1.77;;;;;;;;;;5029804;28;20515;-63
2023/10/08 06:46:15;;;;;;;8.48;2.15;;;;;;;;;;5004622;28;20448;-65
2023/10/08 06:48:45;;;;;;;6.90;1.77;;;;;;;;;;5028580;28;20040;-66
2023/10/08 06:51:14;;;;;;;6.65;2.05;;;;;;;;;;5010541;28;20024;-66
2023/10/08 06:53:39;;;;;;;6.15;1.98;;;;;;;;;;5024217;28;20473;-68
2023/10/08 06:56:05;;;;;;;4.85;1.98;;;;;;;;;;5028824;28;20029;-62
2023/10/08 06:58:34;;;;;;;10.88;2.05;;;;;;;;;;5026228;28;20106;-65
2023/10/08 07:01:04;;;;;;;;;;;;;;;;;;5030256;28;20025;-66
2023/10/08 07:03:31;;;;;;;4.13;1.42;;;;;;;;;;5027874;28;19915;-66
2023/10/08 07:06:03;;;;;;;8.43;1.42;;;;;;;;;;5032667;28;20538;-65
2023/10/08 07:08:32;;;;;;;8.50;1.98;;;;;;;;;;5028135;28;20069;-66
2023/10/08 07:11:00;;;;;;;5.45;2.17;;;;;;;;;;5028632;28;20497;-65
2023/10/08 07:13:29;;;;;;;7.10;2.10;;;;;;;;;;5030024;28;20546;-66
2023/10/08 07:15:55;;;;;;;12.27;2.08;;;;;;;;;;5026804;28;20030;-67
2023/10/08 07:18:26;;;;;;;9.30;1.63;;;;;;;;;;5028477;28;20021;-65
2023/10/08 07:20:56;;;;;;;3.47;1.15;;;;;;;;;;5022333;28;20078;-64
2023/10/08 07:23:25;;;;;;;7.60;1.80;;;;;;;;;;5024577;28;20030;-66
2023/10/08 07:26:01;;;;;;;9.55;1.75;;;;;;;;;;5019472;28;20028;-66
2023/10/08 07:28:29;;;;;;;12.00;1.75;;;;;;;;;;5023286;28;20018;-68
2023/10/08 07:30:54;;;;;;;20.58;3.85;;;;;;;;;;5028847;28;20017;-69
2023/10/08 07:33:24;;;;;;;13.32;2.13;;;;;;;;;;5027594;28;20448;-63
2023/10/08 07:36:34;;;;;;;12.25;1.48;;;;;;;;;;5027666;28;20028;-68
2023/10/08 07:38:42;;;;;;;5.53;1.70;;;;;;;;;;5011220;28;20129;-66
2023/10/08 07:41:07;;;;;;;6.90;1.75;;;;;;;;;;5022570;28;20025;-67
2023/10/08 07:43:32;;;;;;;10.07;1.83;;;;;;;;;;5027623;28;20025;-67
2023/10/08 07:45:58;;;;;;;9.43;2.00;;;;;;;;;;5022385;28;20629;-67
2023/10/08 07:48:29;;;;;;;5.22;1.58;;;;;;;;;;5021269;28;20483;-66
2023/10/08 07:50:55;;;;;;;10.90;1.98;;;;;;;;;;5028568;28;20048;-64
2023/10/08 07:53:20;;;;;;;9.60;2.35;;;;;;;;;;5019455;28;20041;-66
2023/10/08 07:55:46;;;;;;;8.40;1.75;;;;;;;;;;5028367;28;20029;-66
2023/10/08 07:58:14;;;;;;;17.45;2.25;;;;;;;;;;5027722;28;20013;-66
2023/10/08 08:00:40;;;;;;;13.15;3.00;;;;;;;;;;5022707;28;20025;-66
2023/10/08 08:03:06;;;;;;;8.10;1.92;;;;;;;;;;5020159;28;20044;-66
2023/10/08 08:05:31;;;;;;;9.25;1.90;;;;;;;;;;5023799;28;20018;-67
2023/10/08 08:08:05;;;;;;;8.80;1.92;;;;;;;;;;5027413;28;20039;-67
2023/10/08 08:10:30;;;;;;;6.82;2.10;;;;;;;;;;5028605;28;20032;-66
2023/10/08 08:12:56;;;;;;;11.98;1.98;;;;;;;;;;5022312;28;20026;-65
2023/10/08 08:15:22;;;;;;;4.68;1.65;;;;;;;;;;5017217;28;20628;-66
2023/10/08 08:17:48;;;;;;;12.40;2.30;;;;;;;;;;5029987;28;20017;-64
2023/10/08 08:20:22;;;;;;;5.30;1.58;;;;;;;;;;5020120;28;20040;-67
2023/10/08 08:22:50;;;;;;;15.60;3.53;;;;;;;;;;5027616;28;20109;-66
2023/10/08 08:25:16;;;;;;;22.38;3.67;;;;;;;;;;5028857;28;20021;-67
2023/10/08 08:27:46;;;;;;;11.30;2.40;;;;;;;;;;5009809;28;20567;-66
2023/10/08 08:30:15;;;;;;;14.35;2.42;;;;;;;;;;5012361;28;20067;-66
2023/10/08 08:32:43;;;;;;;9.48;2.38;;;;;;;;;;5021268;28;20022;-68
2023/10/08 08:35:11;;;;;;;8.40;2.45;;;;;;;;;;5026629;28;20033;-66
2023/10/08 08:37:40;;;;;;;8.60;2.13;;;;;;;;;;5027715;28;20029;-65
2023/10/08 08:40:09;;;;;;;8.07;2.20;;;;;;;;;;5025592;28;20030;-64
2023/10/08 08:42:35;;;;;;;11.88;1.95;;;;;;;;;;5025330;28;20021;-67
2023/10/08 08:45:03;;;;;;;10.52;2.20;;;;;;;;;;5026102;28;20021;-63
2023/10/08 08:47:31;;;;;;;10.57;2.70;;;;;;;;;;5010823;28;20413;-64
2023/10/08 08:50:00;;;;;;;6.17;1.90;;;;;;;;;;5019301;28;20042;-64
2023/10/08 08:52:25;;;;;;;9.63;1.92;;;;;;;;;;5028675;28;20123;-66
2023/10/08 08:54:51;;;;;;;10.00;2.08;;;;;;;;;;5028551;28;20477;-66
2023/10/08 08:57:17;;;;;;;10.18;1.85;;;;;;;;;;5022728;28;20031;-67
2023/10/08 08:59:52;;;;;;;12.02;1.85;;;;;;;;;;5026682;28;20088;-65
2023/10/08 09:02:18;;;;;;;7.88;1.85;;;;;;;;;;5006024;28;20034;-63
2023/10/08 09:04:45;;;;;;;8.48;2.30;;;;;;;;;;5023094;28;20013;-62
2023/10/08 09:07:11;;;;;;;10.07;2.75;;;;;;;;;;5021114;28;20493;-61
2023/10/08 09:09:39;;;;;;;10.68;2.42;;;;;;;;;;5029771;28;20390;-64
2023/10/08 09:12:04;;;;;;;11.85;2.42;;;;;;;;;;5020796;28;20014;-63
2023/10/08 09:14:31;;;;;;;9.20;1.83;;;;;;;;;;5026754;28;20021;-64
2023/10/08 09:16:57;;;;;;;12.60;2.50;;;;;;;;;;5022388;28;21502;-65
2023/10/08 09:19:26;;;;;;;8.13;2.10;;;;;;;;;;5027314;28;20024;-64
2023/10/08 09:21:51;;;;;;;;;;;;;;;;;;5027125;28;20033;-59
2023/10/08 09:24:18;;;;;;;10.93;2.17;;;;;;;;;;5020176;28;19917;-64
2023/10/08 09:26:47;;;;;;;8.00;2.28;;;;;;;;;;5019941;28;20026;-63
2023/10/08 09:29:14;;;;;;;13.52;2.00;;;;;;;;;;5025795;28;20036;-64
2023/10/08 09:31:40;;;;;;;11.27;3.28;;;;;;;;;;5020511;28;20461;-65
2023/10/08 09:34:05;;;;;;;12.10;3.33;;;;;;;;;;5037061;28;20581;-64
2023/10/08 09:36:31;;;;;;;8.52;2.40;;;;;;;;;;5028993;28;20144;-64
2023/10/08 09:39:00;;;;;;;7.18;2.05;;;;;;;;;;5029286;28;20079;-66
2023/10/08 09:41:28;;;;;;;7.63;2.47;;;;;;;;;;5029632;28;20576;-67
2023/10/08 09:43:54;;;;;;;9.60;2.80;;;;;;;;;;5017666;28;20037;-66
2023/10/08 09:46:23;;;;;;;6.97;2.20;;;;;;;;;;5017272;28;20294;-67
2023/10/08 09:48:52;;;;;;;12.50;2.20;;;;;;;;;;5019668;28;20057;-66
2023/10/08 09:51:18;;;;;;;10.25;2.00;;;;;;;;;;5016814;28;20580;-67
2023/10/08 09:54:00;;;;;;;10.30;2.80;;;;;;;;;;5018551;28;20034;-64
2023/10/08 09:56:28;;;;;;;9.10;2.28;;;;;;;;;;5016899;28;20029;-70
2023/10/08 09:58:53;;;;;;;10.13;2.10;;;;;;;;;;5018960;28;20684;-70
2023/10/08 10:01:19;;;;;;;6.85;2.75;;;;;;;;;;5016220;28;20030;-66
2023/10/08 10:03:45;;;;;;;9.18;2.30;;;;;;;;;;5016853;28;20040;-67
2023/10/08 10:06:15;;;;;;;21.00;2.80;;;;;;;;;;5016864;28;20021;-65
2023/10/08 10:08:44;;;;;;;9.15;2.28;;;;;;;;;;4999537;28;20025;-65
2023/10/08 10:11:10;;;;;;;5.97;2.60;;;;;;;;;;5015772;28;20045;-66
2023/10/08 10:13:44;;;;;;;7.50;2.28;;;;;;;;;;5018887;28;20049;-67
2023/10/08 10:16:10;;;;;;;11.18;2.45;;;;;;;;;;5015925;28;20087;-65
2023/10/08 10:18:35;;;;;;;10.30;2.65;;;;;;;;;;5017341;28;20026;-66
2023/10/08 10:21:20;;;;;;;9.65;2.90;;;;;;;;;;5014677;28;20057;-65
2023/10/08 10:23:46;;;;;;;10.55;2.67;;;;;;;;;;4999871;28;20120;-66
2023/10/08 10:26:30;;;;;;;8.38;3.05;;;;;;;;;;5015691;28;20378;-64
2023/10/08 10:29:10;;;;;;;8.75;2.42;;;;;;;;;;5019714;28;20022;-66
2023/10/08 10:31:37;;;;;;;8.98;2.63;;;;;;;;;;5016456;28;20120;-64
2023/10/08 10:34:08;;;;;;;11.75;2.90;;;;;;;;;;5016784;28;20152;-66
2023/10/08 10:36:33;;;;;;;11.10;2.83;;;;;;;;;;5017852;28;20122;-67
2023/10/08 10:38:58;;;;;;;9.50;3.42;;;;;;;;;;5016924;28;20499;-68
2023/10/08 10:41:24;;;;;;;10.63;2.97;;;;;;;;;;5014875;28;20782;-66
2023/10/08 10:43:52;;;;;;;12.07;2.80;;;;;;;;;;5017860;28;20809;-64
2023/10/08 10:46:30;;;;;;;16.55;3.22;;;;;;;;;;5017166;28;20049;-64
2023/10/08 10:51:41;;;;;;;9.68;2.83;;;;;;;;;;5014891;28;20028;-64
2023/10/08 10:54:19;;;;;;;9.98;3.22;;;;;;;;;;5016567;28;20075;-65
2023/10/08 10:56:47;;;;;;;13.63;3.13;;;;;;;;;;5016220;28;20075;-66
2023/10/08 10:59:18;;;;;;;11.68;3.03;;;;;;;;;;5016201;28;20025;-65
2023/10/08 11:01:52;;;;;;;11.70;2.85;;;;;;;;;;5014928;28;20033;-64
2023/10/08 11:04:28;;;;;;;6.97;3.10;;;;;;;;;;5014736;28;20112;-64
2023/10/08 11:06:58;;;;;;;6.18;2.70;;;;;;;;;;5016287;28;20235;-63
2023/10/08 11:09:35;;;;;;;14.48;3.00;;;;;;;;;;5016720;28;20540;-63
2023/10/08 11:12:02;;;;;;;10.73;2.63;;;;;;;;;;4996423;28;20028;-66
2023/10/08 11:14:28;;;;;;;11.68;3.35;;;;;;;;;;5016213;28;20122;-65
2023/10/08 11:16:53;;;;;;;13.20;3.28;;;;;;;;;;4998743;28;20037;-66
2023/10/08 11:19:21;;;;;;;10.07;2.72;;;;;;;;;;5014482;28;20025;-67
2023/10/08 11:21:50;;;;;;;15.75;3.20;;;;;;;;;;5016242;28;20037;-64
2023/10/08 11:24:26;;;;;;;6.90;2.53;;;;;;;;;;5016025;28;20079;-64
2023/10/08 11:27:06;;;;;;;7.90;2.60;;;;;;;;;;5015448;28;20416;-66
2023/10/08 11:29:32;;;;;;;12.55;2.65;;;;;;;;;;5016543;28;20039;-66
2023/10/08 11:32:00;;;;;;;9.90;3.15;;;;;;;;;;5015173;28;20668;-66
2023/10/08 11:34:36;;;;;;;10.82;3.10;;;;;;;;;;5015374;28;20147;-64
2023/10/08 11:37:04;;;;;;;11.15;3.00;;;;;;;;;;5017360;28;20663;-66
2023/10/08 11:39:45;;;;;;;9.35;2.58;;;;;;;;;;4999528;28;20036;-61
2023/10/08 11:42:39;;;;;;;10.25;2.63;;;;;;;;;;5015359;28;20078;-66
2023/10/08 11:44:59;;;;;;;10.07;2.60;;;;;;;;;;5020471;28;21395;-66
2023/10/08 11:47:25;;;;;;;8.23;2.75;;;;;;;;;;5020464;28;20044;-66
2023/10/08 11:49:57;;;;;;;9.35;2.60;;;;;;;;;;5018852;28;20037;-64
2023/10/08 11:52:23;;;;;;;11.80;2.80;;;;;;;;;;5019289;28;20021;-66
2023/10/08 11:54:49;;;;;;;15.02;3.10;;;;;;;;;;5019832;28;20021;-63
2023/10/08 11:57:18;;;;;;;11.85;2.88;;;;;;;;;;5019758;28;20397;-64
2023/10/08 11:59:46;;;;;;;11.27;3.42;;;;;;;;;;5018419;28;20040;-65
2023/10/08 12:02:16;;;;;;;8.13;2.60;;;;;;;;;;5017495;28;20027;-65
2023/10/08 12:04:41;;;;;;;11.02;2.47;;;;;;;;;;5017969;28;20498;-63
2023/10/08 12:07:07;;;;;;;13.75;2.95;;;;;;;;;;5018342;28;20175;-66
2023/10/08 12:09:37;;;;;;;12.90;2.92;;;;;;;;;;4994396;28;20033;-68
2023/10/08 12:12:06;;;;;;;14.48;2.78;;;;;;;;;;5017077;28;20093;-65
2023/10/08 12:14:31;;;;;;;9.60;2.25;;;;;;;;;;5018509;28;20033;-65
2023/10/08 12:16:59;;;;;;;11.30;2.75;;;;;;;;;;5018760;28;20029;-63
2023/10/08 12:19:26;;;;;;;11.82;2.42;;;;;;;;;;5017622;28;20036;-66
2023/10/08 12:21:52;;;;;;;8.00;2.30;;;;;;;;;;5016014;28;20041;-66
2023/10/08 12:24:19;;;;;;;12.27;2.70;;;;;;;;;;5018644;28;20649;-67
2023/10/08 12:26:45;;;;;;;9.45;2.40;;;;;;;;;;5016996;28;20026;-67
2023/10/08 12:29:14;;;;;;;9.82;2.88;;;;;;;;;;5024970;28;20032;-65
2023/10/08 12:31:39;;;;;;;13.85;3.45;;;;;;;;;;5035939;28;20070;-66
2023/10/08 12:34:04;;;;;;;12.85;2.75;;;;;;;;;;5024449;28;20499;-65
2023/10/08 12:36:33;;;;;;;9.43;2.50;;;;;;;;;;5025082;28;20534;-62
2023/10/08 12:38:58;;;;;;;11.90;3.40;;;;;;;;;;5025360;28;20056;-65
2023/10/08 12:41:26;;;;;;;11.77;2.70;;;;;;;;;;5032029;28;20166;-64
2023/10/08 12:43:54;;;;;;;8.98;2.95;;;;;;;;;;5024177;28;20052;-65
2023/10/08 12:46:31;;;;;;;10.63;3.05;;;;;;;;;;5040715;28;20588;-66
2023/10/08 12:48:56;;;;;;;12.30;3.30;;;;;;;;;;5029599;28;20032;-66
2023/10/08 12:51:24;;;;;;;14.55;2.72;;;;;;;;;;5018601;28;20018;-64
2023/10/08 12:54:06;;;;;;;5.57;2.42;;;;;;;;;;5016197;28;20495;-63
2023/10/08 12:56:32;;;;;;;7.18;2.88;;;;;;;;;;5030580;28;20021;-65
2023/10/08 12:58:58;;;;;;;8.85;3.13;;;;;;;;;;5035616;28;20028;-65
2023/10/08 13:01:23;;;;;;;12.50;3.33;;;;;;;;;;5023318;28;20393;-66
2023/10/08 13:03:48;;;;;;;9.50;2.60;;;;;;;;;;5027123;28;20017;-67
2023/10/08 13:06:28;;;;;;;8.93;2.47;;;;;;;;;;5020407;28;20486;-64
2023/10/08 13:08:57;;;;;;;13.30;2.95;;;;;;;;;;5028102;28;20017;-65
2023/10/08 13:11:23;;;;;;;6.43;2.70;;;;;;;;;;5023992;28;20025;-66
2023/10/08 13:13:49;;;;;;;11.80;3.08;;;;;;;;;;5025185;28;20022;-63
2023/10/08 13:16:14;;;;;;;11.90;3.03;;;;;;;;;;5023548;28;20437;-66
2023/10/08 13:18:43;;;;;;;16.67;3.58;;;;;;;;;;5022085;28;20057;-66
2023/10/08 13:21:09;;;;;;;9.75;2.80;;;;;;;;;;5025710;28;20033;-65
2023/10/08 13:23:35;;;;;;;12.18;3.20;;;;;;;;;;5026755;28;20029;-67
2023/10/08 13:26:04;;;;;;;20.85;4.10;;;;;;;;;;5020460;28;20025;-67
2023/10/08 13:28:29;;;;;;;;;;;;;;;;;;5020477;28;20017;-67
2023/10/08 13:30:54;;;;;;;9.40;2.88;;;;;;;;;;5032878;28;19951;-67
2023/10/08 13:33:20;;;;;;;9.95;2.50;;;;;;;;;;5028475;28;20147;-72
2023/10/08 13:35:45;;;;;;;14.00;2.45;;;;;;;;;;5024339;28;20028;-66
2023/10/08 13:38:16;;;;;;;4.88;2.17;;;;;;;;;;5027198;28;20346;-67
2023/10/08 13:40:43;;;;;;;8.45;2.53;;;;;;;;;;5023615;28;20099;-66
2023/10/08 13:43:11;;;;;;;7.13;2.55;;;;;;;;;;5026650;28;20091;-66
2023/10/08 13:45:39;;;;;;;7.90;1.98;;;;;;;;;;5020813;28;20026;-67
2023/10/08 13:48:05;;;;;;;6.78;2.03;;;;;;;;;;5026726;28;20385;-66
2023/10/08 13:50:30;;;;;;;10.55;3.20;;;;;;;;;;5023129;28;20498;-65
2023/10/08 13:52:56;;;;;;;12.80;2.10;;;;;;;;;;5026460;28;20025;-67
2023/10/08 13:55:25;;;;;;;11.70;1.80;;;;;;;;;;5021409;28;20014;-67
2023/10/08 13:57:50;;;;;;;12.20;2.60;;;;;;;;;;5027655;28;20021;-65
2023/10/08 14:00:16;;;;;;;13.52;3.70;;;;;;;;;;5019224;28;20095;-67
2023/10/08 14:02:42;;;;;;;8.32;2.47;;;;;;;;;;5024013;28;20014;-67
2023/10/08 14:05:08;;;;;;;7.97;2.10;;;;;;;;;;5027517;28;20032;-64
2023/10/08 14:07:35;;;;;;;11.48;2.15;;;;;;;;;;5016184;28;20497;-67
2023/10/08 14:10:05;;;;;;;7.75;2.50;;;;;;;;;;5030634;28;20018;-63
2023/10/08 14:12:34;;;;;;;10.82;2.58;;;;;;;;;;5028155;28;20021;-63
2023/10/08 14:14:59;;;;;;;15.10;2.95;;;;;;;;;;5020621;28;20052;-68
2023/10/08 14:17:42;;;;;;;8.60;2.67;;;;;;;;;;5024719;28;20050;-65
2023/10/08 14:20:12;;;;;;;8.98;2.22;;;;;;;;;;5010359;28;20505;-63
2023/10/08 14:22:38;;;;;;;10.65;3.00;;;;;;;;;;5032754;28;20037;-66
2023/10/08 14:25:11;;;;;;;9.30;2.90;;;;;;;;;;5025333;28;20026;-65
2023/10/08 14:27:39;;;;;;;9.07;2.97;;;;;;;;;;5028456;28;20049;-65
2023/10/08 14:30:06;;;;;;;7.72;1.85;;;;;;;;;;5031788;28;20646;-64
2023/10/08 14:32:34;;;;;;;9.63;2.78;;;;;;;;;;5026238;28;20432;-67
2023/10/08 14:43:11;;;;;;;9.77;2.80;;;;;;;;;;5023281;28;20036;-65
2023/10/08 14:45:37;;;;;;;6.50;2.70;;;;;;;;;;5023757;28;20033;-67
2023/10/08 14:48:02;;;;;;;17.48;2.85;;;;;;;;;;5027127;28;20013;-66
2023/10/08 14:50:28;;;;;;;7.88;2.45;;;;;;;;;;5023472;28;20025;-67
2023/10/08 14:52:56;;;;;;;11.68;3.67;;;;;;;;;;5027523;28;20044;-67
2023/10/08 14:55:21;;;;;;;10.95;3.15;;;;;;;;;;5021225;28;20021;-68
2023/10/08 14:57:47;;;;;;;8.75;2.25;;;;;;;;;;5027204;28;20025;-67
2023/10/08 15:00:12;;;;;;;11.18;2.80;;;;;;;;;;5029856;28;20026;-64
2023/10/08 15:02:38;;;;;;;9.35;2.40;;;;;;;;;;5022743;28;20085;-66
2023/10/08 15:05:06;;;;;;;5.60;2.33;;;;;;;;;;5024504;28;20104;-67
2023/10/08 15:07:32;;;;;;;7.55;2.38;;;;;;;;;;5027825;28;20629;-69
2023/10/08 15:09:57;;;;;;;6.88;2.22;;;;;;;;;;5024922;28;20029;-67
2023/10/08 15:12:25;;;;;;;7.15;2.28;;;;;;;;;;5019812;28;20373;-67
2023/10/08 15:14:50;;;;;;;12.57;2.60;;;;;;;;;;5023700;28;20026;-64
2023/10/08 15:17:16;;;;;;;10.93;2.83;;;;;;;;;;5029235;28;20476;-67
2023/10/08 15:19:41;;;;;;;8.40;2.65;;;;;;;;;;5027200;28;20076;-66
2023/10/08 15:22:06;;;;;;;10.13;2.70;;;;;;;;;;5027022;28;20083;-67
2023/10/08 15:24:35;;;;;;;9.45;2.15;;;;;;;;;;5028286;28;20040;-64
2023/10/08 15:27:00;;;;;;;;;;;;;;;;;;5023409;28;20508;-65
2023/10/08 15:29:26;;;;;;;11.95;2.92;;;;;;;;;;5022003;28;19987;-66
2023/10/08 15:31:57;;;;;;;8.32;2.40;;;;;;;;;;5020178;28;20641;-65
2023/10/08 15:34:23;;;;;;;8.00;3.05;;;;;;;;;;5021026;28;20021;-63
2023/10/08 15:36:49;;;;;;;9.50;3.03;;;;;;;;;;5012876;28;20025;-66
2023/10/08 15:39:22;;;;;;;12.27;2.80;;;;;;;;;;5020807;28;20401;-65